Baitag, Mongolia
Current Conditions -  °F | °C
As of 2:00 PM on Sunday 23 Nov 2014 (Local Time) from ZWWW Reporting Station
Smoke Smoke  
Wind Chill: 30°   Ceiling: Unl
Heat Index: 34°   Visibility: 3mi
Dew Point: 21°   Wind: 4mph
Humidity: 60%   Direction: 310°NW
Pressure: 30.18"   Gusts: NA
Location:  46.12°N, 91.47°E
Report Text: ZWWW 230600Z 31002MPS 290V350 5000 FU NSC 01/M06 Q1022 NOSIG
Loading
Personal Weather Stations






























Interactive Weather Map New forecast layout! Learn more

10-Day Weather Forecast

Advertisements
Track Severe Weather on mobile